Time;durP1;ratioP1;P1;durP2;ratioP2;P2;SDS_P1;SDS_P2;PMS_P1;PMS_P2;Temp;Humidity;BMP_temperature;BMP_pressure;BME280_temperature;BME280_humidity;BME280_pressure;Samples;Min_cycle;Max_cycle;Signal;HPM_P1;HPM_P2
2021/08/03 00:01:11;;;;;;;;;;;;;;;25.51;62.68;101007.44;4990308;28;1288;-69
2021/08/03 00:03:39;;;;;;;;;;;;;;;25.47;62.55;101006.78;4990611;28;985;-68
2021/08/03 00:06:29;;;;;;;;;;;;;;;25.50;62.28;101005.75;4990046;28;1336;-67
2021/08/03 00:08:57;;;;;;;;;;;;;;;25.51;62.10;101007.44;4972054;28;1906;-67
2021/08/03 00:11:25;;;;;;;;;;;;;;;25.50;62.53;101011.91;4990079;28;1767;-68
2021/08/03 00:13:52;;;;;;;;;;;;;;;25.54;62.14;101009.84;4956547;28;1340;-66
2021/08/03 00:16:19;;;;;;;;;;;;;;;25.54;62.21;101013.38;4990051;28;1217;-67
2021/08/03 00:18:46;;;;;;;;;;;;;;;25.53;62.15;101006.31;4990085;28;1138;-67
2021/08/03 00:21:13;;;;;;;;;;;;;;;25.53;62.82;101006.31;4989979;28;1311;-68
2021/08/03 00:23:45;;;;;;;;;;;;;;;25.53;62.37;100995.66;4990385;28;1001;-68
2021/08/03 00:26:14;;;;;;;;;;;;;;;25.51;62.80;100986.94;4990125;28;1248;-66
2021/08/03 00:28:45;;;;;;;;;;;;;;;25.54;62.24;100986.69;4972348;28;1973;-68
2021/08/03 00:31:16;;;;;;;;;;;;;;;25.48;62.83;100981.84;4989949;28;1261;-68
2021/08/03 00:33:47;;;;;;;;;;;;;;;25.43;62.17;100973.38;4990073;28;1089;-68
2021/08/03 00:36:14;;;;;;;;;;;;;;;25.48;62.43;100976.53;4989785;28;1323;-68
2021/08/03 00:38:40;;;;;;;;;;;;;;;25.45;62.43;100982.06;4972101;28;1141;-68
2021/08/03 00:41:09;;;;;;;;;;;;;;;25.47;62.83;100989.97;4972252;28;1221;-68
2021/08/03 00:43:37;;;;;;;;;;;;;;;25.47;62.73;100976.63;4971996;28;1196;-67
2021/08/03 00:46:04;;;;;;;;;;;;;;;25.45;62.49;100978.56;4972345;28;1315;-68
2021/08/03 00:48:30;;;;;;;;;;;;;;;25.45;62.44;100976.75;4972032;28;1915;-69
2021/08/03 00:50:57;;;;;;;;;;;;;;;25.44;62.53;100976.88;4989604;28;1320;-68
2021/08/03 00:53:24;;;;;;;;;;;;;;;25.43;62.58;100977.84;4989695;28;1042;-68
2021/08/03 00:55:51;;;;;;;;;;;;;;;25.43;62.70;100970.69;4989469;28;1300;-69
2021/08/03 00:58:18;;;;;;;;;;;;;;;25.44;62.59;100969.69;4989615;28;1128;-67
2021/08/03 01:00:45;;;;;;;;;;;;;;;25.44;62.40;100969.69;4989478;28;1241;-67
2021/08/03 01:03:12;;;;;;;;;;;;;;;25.46;62.74;100969.59;4989529;28;1031;-67
2021/08/03 01:05:59;;;;;;;;;;;;;;;25.42;62.42;100973.47;4989572;28;1241;-67
2021/08/03 01:08:46;;;;;;;;;;;;;;;25.38;62.24;100975.53;4989233;28;1906;-68
2021/08/03 01:11:18;;;;;;;;;;;;;;;25.39;62.19;100977.25;4978993;28;1583;-68
2021/08/03 01:13:47;;;;;;;;;;;;;;;25.40;61.75;100972.75;4989203;28;1034;-68
2021/08/03 01:16:37;;;;;;;;;;;;;;;25.39;62.26;100976.38;4989188;28;1233;-68
2021/08/03 01:19:19;;;;;;;;;;;;;;;25.40;62.03;100972.75;4966403;28;1151;-68
2021/08/03 01:21:56;;;;;;;;;;;;;;;25.39;62.11;100974.56;4988298;28;1135;-67
2021/08/03 01:24:35;;;;;;;;;;;;;;;25.36;61.39;100972.16;4989367;28;1253;-67
2021/08/03 01:27:22;;;;;;;;;;;;;;;25.33;62.31;100972.41;4989268;28;874;-67
2021/08/03 01:29:49;;;;;;;;;;;;;;;25.33;61.76;100976.88;4989304;28;1518;-68
2021/08/03 01:32:21;;;;;;;;;;;;;;;25.32;62.25;100977.88;4971571;28;1157;-66
2021/08/03 01:34:50;;;;;;;;;;;;;;;25.32;61.44;100968.03;4989239;28;1268;-67
2021/08/03 01:37:17;;;;;;;;;;;;;;;25.33;62.55;100968.88;4988858;28;1077;-67
2021/08/03 01:39:48;;;;;;;;;;;;;;;25.33;62.18;100964.41;4988857;28;1297;-67
2021/08/03 01:42:17;;;;;;;;;;;;;;;25.30;62.27;100972.66;4988894;28;807;-68
2021/08/03 01:44:45;;;;;;;;;;;;;;;25.31;62.50;100978.84;4989301;28;1261;-69
2021/08/03 01:47:13;;;;;;;;;;;;;;;25.32;62.38;100969.88;4988779;28;914;-68
2021/08/03 01:49:40;;;;;;;;;;;;;;;25.32;62.29;100968.03;4988916;28;1910;-69
2021/08/03 01:52:07;;;;;;;;;;;;;;;25.29;62.60;100962.94;4971487;28;827;-67
2021/08/03 01:54:34;;;;;;;;;;;;;;;25.25;62.33;100958.84;4970998;28;1644;-67
2021/08/03 01:57:02;;;;;;;;;;;;;;;25.27;62.54;100964.91;4955269;28;1850;-68
2021/08/03 01:59:29;;;;;;;;;;;;;;;25.28;61.56;100963.09;4988914;28;1328;-67
2021/08/03 02:01:56;;;;;;;;;;;;;;;25.26;61.88;100976.53;4988014;28;1077;-67
2021/08/03 02:04:24;;;;;;;;;;;;;;;25.28;62.29;100966.59;4988300;28;1272;-67
2021/08/03 02:06:51;;;;;;;;;;;;;;;25.28;61.83;100973.75;4988526;28;751;-67
2021/08/03 02:09:20;;;;;;;;;;;;;;;25.26;61.14;100970.38;4988407;28;1902;-69
2021/08/03 02:11:48;;;;;;;;;;;;;;;25.27;62.51;100966.72;4988388;28;1332;-67
2021/08/03 02:14:16;;;;;;;;;;;;;;;25.23;61.85;100970.63;4989439;28;1195;-67
2021/08/03 02:16:43;;;;;;;;;;;;;;;25.18;61.98;100956.78;4992326;28;1257;-67
2021/08/03 02:19:10;;;;;;;;;;;;;;;25.18;62.08;100975.47;4992109;28;1196;-67
2021/08/03 02:21:37;;;;;;;;;;;;;;;25.19;61.79;100970.03;4991773;28;1186;-67
2021/08/03 02:24:03;;;;;;;;;;;;;;;25.22;62.13;100969.78;4975043;28;1040;-67
2021/08/03 02:26:30;;;;;;;;;;;;;;;25.21;60.64;100965.41;4975163;28;1198;-68
2021/08/03 02:28:57;;;;;;;;;;;;;;;25.22;60.89;100961.78;4992574;28;1906;-68
2021/08/03 02:31:44;;;;;;;;;;;;;;;25.21;61.25;100965.41;4974542;28;1225;-68
2021/08/03 02:34:25;;;;;;;;;;;;;;;25.22;61.41;100956.44;4992375;28;1469;-68
2021/08/03 02:36:54;;;;;;;;;;;;;;;25.19;62.47;100967.34;4958546;28;1349;-67
2021/08/03 02:39:21;;;;;;;;;;;;;;;25.20;61.63;100966.34;4992112;28;1229;-66
2021/08/03 02:41:49;;;;;;;;;;;;;;;25.20;60.86;100963.69;4974206;28;1427;-67
2021/08/03 02:44:17;;;;;;;;;;;;;;;25.20;61.45;100961.03;4992399;28;1115;-66
2021/08/03 02:46:46;;;;;;;;;;;;;;;25.18;62.01;100957.66;4974285;28;1340;-66
2021/08/03 02:49:15;;;;;;;;;;;;;;;25.15;61.75;100957.91;4974203;28;1902;-67
2021/08/03 02:51:42;;;;;;;;;;;;;;;25.18;62.03;100956.78;4991866;28;1320;-67
2021/08/03 02:54:17;;;;;;;;;;;;;;;25.18;61.54;100956.78;4991689;28;1100;-67
2021/08/03 02:56:48;;;;;;;;;;;;;;;25.17;62.22;100955.94;4991952;28;1258;-66
2021/08/03 02:59:16;;;;;;;;;;;;;;;25.13;62.16;100954.53;4974184;28;1192;-66
2021/08/03 03:01:43;;;;;;;;;;;;;;;25.12;61.67;100950.16;4991616;28;1265;-67
2021/08/03 03:04:14;;;;;;;;;;;;;;;25.15;62.46;100947.22;4991674;28;1159;-67
2021/08/03 03:06:44;;;;;;;;;;;;;;;25.13;61.38;100954.53;4991631;28;1312;-67
2021/08/03 03:09:12;;;;;;;;;;;;;;;25.16;61.90;100956.09;4991318;28;1965;-67
2021/08/03 03:11:40;;;;;;;;;;;;;;;25.15;62.11;100949.03;4991156;28;1310;-67
2021/08/03 03:14:08;;;;;;;;;;;;;;;25.15;61.86;100949.91;4973823;28;1671;-67
2021/08/03 03:16:39;;;;;;;;;;;;;;;25.12;61.71;100958.16;4991655;28;1230;-67
2021/08/03 03:19:07;;;;;;;;;;;;;;;25.12;62.02;100951.97;4974124;28;1150;-67
2021/08/03 03:21:34;;;;;;;;;;;;;;;25.13;61.25;100951.84;4974042;28;1314;-67
2021/08/03 03:24:02;;;;;;;;;;;;;;;25.13;61.66;100949.19;4973560;28;1181;-68
2021/08/03 03:26:31;;;;;;;;;;;;;;;25.13;61.69;100956.34;4973760;28;1189;-67
2021/08/03 03:28:59;;;;;;;;;;;;;;;25.13;62.16;100949.19;4991148;28;1906;-68
2021/08/03 03:31:29;;;;;;;;;;;;;;;25.14;61.57;100950.84;4991094;28;1249;-67
2021/08/03 03:34:02;;;;;;;;;;;;;;;25.10;61.06;100937.91;4991291;28;1043;-66
2021/08/03 03:36:31;;;;;;;;;;;;;;;25.11;62.17;100937.78;4991162;28;1313;-67
2021/08/03 03:38:59;;;;;;;;;;;;;;;25.12;62.23;100935.97;4991147;28;1000;-67
2021/08/03 03:41:27;;;;;;;;;;;;;;;25.10;61.67;100943.25;4990546;28;1182;-68
2021/08/03 03:43:54;;;;;;;;;;;;;;;25.09;62.38;100936.22;4990976;28;1069;-67
2021/08/03 03:46:21;;;;;;;;;;;;;;;25.08;61.61;100942.53;4990876;28;1300;-67
2021/08/03 03:48:51;;;;;;;;;;;;;;;25.10;61.76;100949.44;4990634;28;1977;-67
2021/08/03 03:51:19;;;;;;;;;;;;;;;25.12;61.65;100958.16;4990782;28;1221;-67
2021/08/03 03:53:48;;;;;;;;;;;;;;;25.12;62.42;100950.16;4990685;28;1141;-68
2021/08/03 03:56:16;;;;;;;;;;;;;;;25.09;62.56;100947.72;4973173;28;1201;-68
2021/08/03 03:58:45;;;;;;;;;;;;;;;25.09;62.33;100950.41;4990534;28;1131;-67
2021/08/03 04:01:13;;;;;;;;;;;;;;;25.06;61.92;100953.31;4972898;28;1226;-67
2021/08/03 04:03:41;;;;;;;;;;;;;;;25.08;62.40;100953.19;4990153;28;934;-67
2021/08/03 04:06:08;;;;;;;;;;;;;;;25.07;61.76;100957.69;4990777;28;1214;-67
2021/08/03 04:08:38;;;;;;;;;;;;;;;25.10;62.09;100960.09;4972906;28;1910;-68
2021/08/03 04:11:05;;;;;;;;;;;;;;;25.08;62.26;100962.00;4990384;28;1554;-67
2021/08/03 04:13:31;;;;;;;;;;;;;;;25.07;61.27;100956.81;4989775;28;1124;-68
2021/08/03 04:15:58;;;;;;;;;;;;;;;25.07;61.93;100941.69;4972840;28;1314;-67
2021/08/03 04:18:25;;;;;;;;;;;;;;;25.06;62.11;100941.78;4973127;28;1232;-68
2021/08/03 04:20:51;;;;;;;;;;;;;;;25.05;61.62;100945.44;4990376;28;1221;-68
2021/08/03 04:23:18;;;;;;;;;;;;;;;25.07;62.00;100948.81;4990267;28;880;-68
2021/08/03 04:25:45;;;;;;;;;;;;;;;25.07;62.20;100944.34;4990179;28;1190;-68
2021/08/03 04:28:11;;;;;;;;;;;;;;;25.06;62.34;100945.31;4972304;28;1915;-67
2021/08/03 04:30:38;;;;;;;;;;;;;;;25.07;62.42;100932.84;4973058;28;1268;-68
2021/08/03 04:33:05;;;;;;;;;;;;;;;25.09;62.34;100936.22;4972394;28;1074;-68
2021/08/03 04:35:32;;;;;;;;;;;;;;;25.09;62.45;100936.22;4989778;28;1271;-68
2021/08/03 04:37:58;;;;;;;;;;;;;;;25.05;61.32;100938.28;4972235;28;963;-68
2021/08/03 04:40:26;;;;;;;;;;;;;;;25.06;62.49;100945.31;4989891;28;1189;-67
2021/08/03 04:42:53;;;;;;;;;;;;;;;25.08;62.30;100948.69;4989636;28;1270;-67
2021/08/03 04:45:19;;;;;;;;;;;;;;;25.05;61.89;100940.94;4989991;28;1383;-68
2021/08/03 04:47:47;;;;;;;;;;;;;;;25.05;61.47;100940.94;4989676;28;751;-69
2021/08/03 04:50:22;;;;;;;;;;;;;;;25.05;61.77;100935.59;4971864;28;1907;-68
2021/08/03 04:52:49;;;;;;;;;;;;;;;25.05;60.67;100935.59;4955919;28;1082;-68
2021/08/03 04:55:16;;;;;;;;;;;;;;;25.02;61.40;100934.03;4989675;28;1240;-67
2021/08/03 04:57:43;;;;;;;;;;;;;;;25.00;62.45;100944.00;4989311;28;834;-67
2021/08/03 05:00:11;;;;;;;;;;;;;;;25.03;62.45;100945.56;4989600;28;1202;-67
2021/08/03 05:02:38;;;;;;;;;;;;;;;25.02;62.12;100951.84;4955765;28;1805;-67
2021/08/03 05:05:06;;;;;;;;;;;;;;;25.02;62.06;100950.03;4989498;28;1212;-67
2021/08/03 05:07:33;;;;;;;;;;;;;;;25.02;61.11;100961.69;4989080;28;1081;-68
2021/08/03 05:10:00;;;;;;;;;;;;;;;25.02;62.00;100959.84;4971613;28;1979;-67
2021/08/03 05:12:27;;;;;;;;;;;;;;;25.01;62.04;100955.50;4988725;28;725;-67
2021/08/03 05:14:58;;;;;;;;;;;;;;;25.01;62.14;100947.50;4970147;28;1221;-68
2021/08/03 05:17:25;;;;;;;;;;;;;;;25.02;61.60;100954.50;4988373;28;1096;-66
2021/08/03 05:19:51;;;;;;;;;;;;;;;25.01;61.43;100960.84;4970683;28;1320;-67
2021/08/03 05:22:18;;;;;;;;;;;;;;;25.02;62.11;100965.16;4970442;28;1435;-67
2021/08/03 05:24:44;;;;;;;;;;;;;;;24.99;62.31;100968.09;4970781;28;1217;-67
2021/08/03 05:27:11;;;;;;;;;;;;;;;24.99;61.83;100962.75;4970861;28;1109;-67
2021/08/03 05:29:38;;;;;;;;;;;;;;;24.99;62.01;100968.09;4971114;28;1910;-68
2021/08/03 05:32:05;;;;;;;;;;;;;;;25.03;61.75;100958.88;4988286;28;869;-67
2021/08/03 05:34:31;;;;;;;;;;;;;;;25.00;61.38;100961.78;4988493;28;1245;-66
2021/08/03 05:37:01;;;;;;;;;;;;;;;25.02;61.10;100963.34;4988290;28;819;-67
2021/08/03 05:39:28;;;;;;;;;;;;;;;25.02;60.82;100970.50;4988442;28;1240;-67
2021/08/03 05:41:54;;;;;;;;;;;;;;;24.98;62.09;100964.59;4946462;28;1657;-67
2021/08/03 05:44:21;;;;;;;;;;;;;;;24.97;61.71;100975.38;4949911;29;1332;-68
2021/08/03 05:46:48;;;;;;;;;;;;;;;25.00;62.24;100980.44;4949523;29;1135;-66
2021/08/03 05:49:14;;;;;;;;;;;;;;;25.00;61.50;100980.44;4956607;28;1947;-65
2021/08/03 05:51:41;;;;;;;;;;;;;;;25.02;61.84;100990.00;4936687;28;1171;-65
2021/08/03 05:54:11;;;;;;;;;;;;;;;24.98;62.36;100993.06;4952052;29;947;-66
2021/08/03 05:56:38;;;;;;;;;;;;;;;25.01;62.04;100990.16;4951972;29;1210;-63
2021/08/03 05:59:05;;;;;;;;;;;;;;;25.00;61.83;100991.97;4952014;28;1092;-65
2021/08/03 06:01:32;;;;;;;;;;;;;;;25.02;62.08;100988.34;4951760;28;1206;-65
2021/08/03 06:03:59;;;;;;;;;;;;;;;25.05;61.71;100994.25;4951836;29;1316;-65
2021/08/03 06:06:29;;;;;;;;;;;;;;;25.00;62.13;100991.97;4951613;29;1231;-66
2021/08/03 06:08:56;;;;;;;;;;;;;;;25.03;62.34;100990.88;4951389;29;1976;-64
2021/08/03 06:11:23;;;;;;;;;;;;;;;25.05;62.05;100980.09;4906212;28;1365251;-64
2021/08/03 06:13:53;;;;;;;;;;;;;;;25.08;62.06;100975.34;4953609;28;1067;-66
2021/08/03 06:16:21;;;;;;;;;;;;;;;25.07;62.04;100983.47;4953321;28;1226;-66
2021/08/03 06:18:48;;;;;;;;;;;;;;;25.09;61.89;100982.38;4952821;28;1124;-65
2021/08/03 06:21:16;;;;;;;;;;;;;;;25.09;61.85;100984.19;4952798;29;1254;-64
2021/08/03 06:23:44;;;;;;;;;;;;;;;25.10;62.23;100980.56;4952600;28;975;-65
2021/08/03 06:26:10;;;;;;;;;;;;;;;25.08;62.26;100986.00;4946289;28;1579;-64
2021/08/03 06:28:38;;;;;;;;;;;;;;;25.12;62.19;100982.13;4952592;29;1132;-63
2021/08/03 06:31:05;;;;;;;;;;;;;;;25.16;62.23;100983.59;4952376;29;1333;-64
2021/08/03 06:33:31;;;;;;;;;;;;;;;25.17;62.32;100987.13;4952095;29;1004;-65
2021/08/03 06:35:58;;;;;;;;;;;;;;;25.16;62.49;100986.25;4952079;28;1359;-65
2021/08/03 06:38:25;;;;;;;;;;;;;;;25.17;62.50;100985.25;4952104;29;1132;-64
2021/08/03 06:40:51;;;;;;;;;;;;;;;25.21;62.41;100984.06;4952199;28;1327;-66
2021/08/03 06:43:22;;;;;;;;;;;;;;;25.21;62.67;100973.41;4966902;28;1436;-66
2021/08/03 06:45:53;;;;;;;;;;;;;;;25.22;62.24;100985.75;4943615;28;1646;-63
2021/08/03 06:48:22;;;;;;;;;;;;;;;25.22;62.17;100976.91;4963725;28;1419;-64
2021/08/03 06:51:02;;;;;;;;;;;;;;;25.23;62.33;100976.78;4948382;28;1918;-64
2021/08/03 06:53:30;;;;;;;;;;;;;;;25.23;62.59;100974.09;4967170;28;1030;-65
2021/08/03 06:56:01;;;;;;;;;;;;;;;25.25;62.38;100979.34;4966242;28;1622;-64
2021/08/03 06:58:35;;;;;;;;;;;;;;;25.26;62.32;100987.19;4936660;29;1147;-67
2021/08/03 07:01:03;;;;;;;;;;;;;;;25.22;62.72;100990.25;4952275;28;1356;-66
2021/08/03 07:03:32;;;;;;;;;;;;;;;25.22;62.76;100988.44;4935943;28;1385;-67
2021/08/03 07:05:59;;;;;;;;;;;;;;;25.24;62.39;100990.97;4961026;28;1316;-64
2021/08/03 07:08:26;;;;;;;;;;;;;;;25.23;62.55;100992.78;4934487;29;1137;-65
2021/08/03 07:10:53;;;;;;;;;;;;;;;25.23;62.87;100989.28;4951625;29;1964;-65
2021/08/03 07:13:20;;;;;;;;;;;;;;;25.23;62.60;100994.63;4954049;28;1543;-65
2021/08/03 07:15:47;;;;;;;;;;;;;;;25.23;62.36;100989.28;4959505;28;1369;-66
2021/08/03 07:18:18;;;;;;;;;;;;;;;25.24;62.58;100999.81;4950835;28;1154;-67
2021/08/03 07:20:45;;;;;;;;;;;;;;;25.23;62.64;100998.09;4951401;29;1291;-66
2021/08/03 07:23:15;;;;;;;;;;;;;;;25.24;62.56;100999.81;4951139;29;1123;-65
2021/08/03 07:25:42;;;;;;;;;;;;;;;25.29;62.44;100996.78;4950896;29;1375;-70
2021/08/03 07:28:09;;;;;;;;;;;;;;;25.29;62.34;101004.78;4933621;28;1500;-65
2021/08/03 07:30:36;;;;;;;;;;;;;;;25.31;62.28;101001.03;4944008;28;1983;-65
2021/08/03 07:33:02;;;;;;;;;;;;;;;25.29;62.52;101002.94;4951211;29;1058;-65
2021/08/03 07:35:29;;;;;;;;;;;;;;;25.26;62.60;100997.84;4951234;28;1412;-64
2021/08/03 07:37:56;;;;;;;;;;;;;;;25.28;62.26;100989.75;4951465;28;1009;-63
2021/08/03 07:40:22;;;;;;;;;;;;;;;25.28;62.52;100995.09;4951471;28;1332;-63
2021/08/03 07:42:49;;;;;;;;;;;;;;;25.28;62.21;100989.75;4951561;28;1496;-63
2021/08/03 07:45:16;;;;;;;;;;;;;;;25.33;62.22;100988.41;4934418;28;1550;-63
2021/08/03 07:47:43;;;;;;;;;;;;;;;25.34;61.94;100995.44;4952743;28;1562;-69
2021/08/03 07:50:11;;;;;;;;;;;;;;;25.35;62.31;100994.44;4961862;28;1973;-70
2021/08/03 07:52:37;;;;;;;;;;;;;;;25.48;61.76;100981.84;4939327;28;1638;-72
2021/08/03 07:55:05;;;;;;;;;;;;;;;25.43;61.05;100988.50;4964862;28;1519;-76
2021/08/03 07:57:32;;;;;;;;;;;;;;;25.49;61.07;100993.38;4957640;28;1451;-74
2021/08/03 07:59:58;;;;;;;;;;;;;;;25.44;60.81;100990.22;4951122;28;1313;-70
2021/08/03 08:02:25;;;;;;;;;;;;;;;25.51;60.53;100997.59;4950768;28;1243;-66
2021/08/03 08:04:52;;;;;;;;;;;;;;;25.56;60.29;100996.41;4952088;28;1285;-70
2021/08/03 08:07:19;;;;;;;;;;;;;;;25.50;59.86;100989.75;4951615;29;1097;-69
2021/08/03 08:09:45;;;;;;;;;;;;;;;25.52;59.79;100988.66;4951083;28;1918;-67
2021/08/03 08:12:12;;;;;;;;;;;;;;;25.49;59.97;100991.56;4949729;28;1089;-69
2021/08/03 08:14:39;;;;;;;;;;;;;;;25.47;59.56;100984.63;4957298;28;1320;-67
2021/08/03 08:17:05;;;;;;;;;;;;;;;25.48;59.74;100988.97;4953111;28;822;-68
2021/08/03 08:19:32;;;;;;;;;;;;;;;25.47;59.66;100993.44;4952928;28;1495;-68
2021/08/03 08:21:59;;;;;;;;;;;;;;;25.62;59.65;100998.56;4970698;28;846;-69
2021/08/03 08:24:25;;;;;;;;;;;;;;;25.53;59.35;100995.66;4970547;28;1304;-68
2021/08/03 08:26:52;;;;;;;;;;;;;;;25.55;59.12;100998.22;4951027;28;1432;-68
2021/08/03 08:29:19;;;;;;;;;;;;;;;25.57;58.58;100998.06;4950947;28;1906;-68
2021/08/03 08:31:46;;;;;;;;;;;;;;;25.53;58.41;100998.31;4953299;28;1160;-68
2021/08/03 08:34:13;;;;;;;;;;;;;;;25.53;58.39;100995.66;4970046;28;1050;-70
2021/08/03 08:36:40;;;;;;;;;;;;;;;25.52;58.22;100987.78;4950220;28;1878;-66
2021/08/03 08:39:07;;;;;;;;;;;;;;;25.52;58.81;100993.13;4969035;28;1219;-64
2021/08/03 08:41:34;;;;;;;;;;;;;;;25.56;58.42;100994.59;4967890;28;1591;-65
2021/08/03 08:44:05;;;;;;;;;;;;;;;25.46;58.31;100996.25;4959293;28;1587;-65
2021/08/03 08:46:32;;;;;;;;;;;;;;;25.48;58.63;100989.84;4955967;28;1532;-65
2021/08/03 08:49:00;;;;;;;;;;;;;;;25.52;58.53;100988.66;4968571;28;1129;-64
2021/08/03 08:51:27;;;;;;;;;;;;;;;25.47;58.66;100987.28;4939028;28;1910;-64
2021/08/03 08:53:54;;;;;;;;;;;;;;;25.50;58.37;100987.09;4967837;28;1141;-63
2021/08/03 08:56:20;;;;;;;;;;;;;;;25.48;58.54;100994.31;4968292;28;1210;-64
2021/08/03 08:58:47;;;;;;;;;;;;;;;25.49;59.01;100986.22;4968631;28;1567;-64
2021/08/03 09:01:14;;;;;;;;;;;;;;;25.47;59.17;100980.13;4951009;28;1220;-63
2021/08/03 09:03:46;;;;;;;;;;;;;;;25.48;59.03;100981.84;4950940;28;1263;-64
2021/08/03 09:06:20;;;;;;;;;;;;;;;25.48;58.90;100986.31;4950564;28;1652;-63
2021/08/03 09:08:48;;;;;;;;;;;;;;;25.47;59.22;100980.13;4968189;28;1232;-63
2021/08/03 09:11:16;;;;;;;;;;;;;;;25.49;59.29;100977.38;4950447;28;1922;-64
2021/08/03 09:13:51;;;;;;;;;;;;;;;25.48;59.10;100984.53;4967951;28;1054;-63
2021/08/03 09:16:18;;;;;;;;;;;;;;;25.48;59.08;100984.53;4968569;28;1548;-63
2021/08/03 09:18:48;;;;;;;;;;;;;;;25.48;59.03;100987.19;4968355;28;1090;-63
2021/08/03 09:21:26;;;;;;;;;;;;;;;25.48;58.93;100978.31;4968304;28;1245;-63
2021/08/03 09:23:56;;;;;;;;;;;;;;;25.48;59.02;100984.53;4966989;28;1093;-63
2021/08/03 09:26:39;;;;;;;;;;;;;;;25.50;59.15;100984.41;4967792;28;1198;-63
2021/08/03 09:29:08;;;;;;;;;;;;;;;25.48;59.00;100981.84;4966414;28;1613;-63
2021/08/03 09:31:36;;;;;;;;;;;;;;;25.49;59.40;100977.38;4958353;28;1983;-62
2021/08/03 09:34:29;;;;;;;;;;;;;;;25.50;58.93;100968.41;4948813;29;1108;-63
2021/08/03 09:36:57;;;;;;;;;;;;;;;25.49;59.06;100977.38;4946394;28;1599;-63
2021/08/03 09:39:33;;;;;;;;;;;;;;;25.49;59.47;100988.91;4951071;28;1340;-64
2021/08/03 09:42:19;;;;;;;;;;;;;;;25.50;59.13;100979.91;4968493;28;839;-62
2021/08/03 09:44:46;;;;;;;;;;;;;;;25.50;59.24;100979.91;4949501;28;1635;-63
2021/08/03 09:47:13;;;;;;;;;;;;;;;25.50;59.05;100985.22;4949748;28;1335;-64
2021/08/03 09:49:41;;;;;;;;;;;;;;;25.50;59.11;100979.91;4967730;28;1903;-65
2021/08/03 09:52:10;;;;;;;;;;;;;;;25.50;59.17;100974.56;4948231;29;1399;-63
2021/08/03 09:54:36;;;;;;;;;;;;;;;25.50;58.96;100985.22;4930958;29;1659;-63
2021/08/03 09:57:04;;;;;;;;;;;;;;;25.51;59.39;100978.09;4948616;28;812;-63
2021/08/03 09:59:32;;;;;;;;;;;;;;;25.52;59.51;100983.31;4947982;29;1257;-63
2021/08/03 10:01:59;;;;;;;;;;;;;;;25.53;59.07;100986.84;4948298;29;772;-62
2021/08/03 10:04:27;;;;;;;;;;;;;;;25.53;59.06;100978.84;4948508;29;1314;-63
2021/08/03 10:06:54;;;;;;;;;;;;;;;25.52;58.94;100971.78;4949204;29;866;-62
2021/08/03 10:09:21;;;;;;;;;;;;;;;25.53;59.11;100984.16;4948728;28;1226;-62
2021/08/03 10:11:48;;;;;;;;;;;;;;;25.54;58.82;100986.69;4948094;28;1987;-63
2021/08/03 10:14:24;;;;;;;;;;;;;;;25.52;59.44;100988.66;4948462;29;1261;-64
2021/08/03 10:16:53;;;;;;;;;;;;;;;25.53;59.65;100990.31;4948106;28;894;-64
2021/08/03 10:19:22;;;;;;;;;;;;;;;25.55;59.28;100992.88;4947908;28;1283;-64
2021/08/03 10:22:15;;;;;;;;;;;;;;;25.53;59.55;100981.50;4947939;29;1128;-64
2021/08/03 10:24:51;;;;;;;;;;;;;;;25.52;59.31;100975.31;4925689;29;1249;-64
2021/08/03 10:27:17;;;;;;;;;;;;;;;25.53;59.12;100971.66;4947852;29;1093;-64
2021/08/03 10:29:51;;;;;;;;;;;;;;;25.54;59.13;100980.50;4947961;29;1915;-64
2021/08/03 10:32:37;;;;;;;;;;;;;;;25.54;59.05;100988.50;4947904;28;900;-65
2021/08/03 10:35:05;;;;;;;;;;;;;;;25.56;59.01;100985.72;4948138;28;1277;-63
2021/08/03 10:37:51;;;;;;;;;;;;;;;25.56;59.26;100977.72;4951413;29;799;-63
2021/08/03 10:40:17;;;;;;;;;;;;;;;25.57;59.24;100982.06;4951584;28;1233;-63
2021/08/03 10:43:04;;;;;;;;;;;;;;;25.56;58.85;100980.41;4952603;28;1303;-63
2021/08/03 10:45:30;;;;;;;;;;;;;;;25.58;58.77;100986.44;4970751;28;1551;-63
2021/08/03 10:47:57;;;;;;;;;;;;;;;25.56;58.79;100983.06;4970344;28;1318;-63
2021/08/03 10:50:28;;;;;;;;;;;;;;;25.58;59.25;100978.44;4970100;28;1910;-63
2021/08/03 10:52:57;;;;;;;;;;;;;;;25.62;58.80;100987.91;4970823;28;804;-64
2021/08/03 10:55:28;;;;;;;;;;;;;;;25.60;59.07;100985.34;4972951;28;1355;-64
2021/08/03 10:58:13;;;;;;;;;;;;;;;25.58;58.77;100981.09;4968744;28;1312;-63
2021/08/03 11:00:41;;;;;;;;;;;;;;;25.60;59.13;100985.34;4955395;28;1839;-64
2021/08/03 11:03:27;;;;;;;;;;;;;;;25.67;58.76;100975.88;4966184;28;1817;-62
2021/08/03 11:05:54;;;;;;;;;;;;;;;25.66;59.90;100978.66;4961542;28;1185;-63
2021/08/03 11:08:28;;;;;;;;;;;;;;;25.68;58.74;100968.72;4977236;28;1642;-62
2021/08/03 11:10:56;;;;;;;;;;;;;;;25.70;59.33;100969.41;4989478;28;1992;-63
2021/08/03 11:13:41;;;;;;;;;;;;;;;25.70;59.83;100969.41;4980264;28;1534;-62
2021/08/03 11:16:20;;;;;;;;;;;;;;;25.70;59.43;100970.28;4966447;28;1725;-63
2021/08/03 11:18:50;;;;;;;;;;;;;;;25.72;59.15;100962.13;4971984;28;1102;-64
2021/08/03 11:21:18;;;;;;;;;;;;;;;25.74;59.05;100954.88;4941273;28;1635;-64
2021/08/03 11:23:54;;;;;;;;;;;;;;;25.75;59.44;100951.19;4989567;28;1056;-65
2021/08/03 11:26:21;;;;;;;;;;;;;;;25.74;58.27;100946.88;4988992;28;1222;-63
2021/08/03 11:28:58;;;;;;;;;;;;;;;25.76;59.60;100943.09;4989168;28;1067;-64
2021/08/03 11:31:45;;;;;;;;;;;;;;;25.76;58.68;100931.56;4979982;28;1968;-61
2021/08/03 11:34:14;;;;;;;;;;;;;;;25.75;58.72;100932.53;4939798;29;1884;-62
2021/08/03 11:36:53;;;;;;;;;;;;;;;25.74;59.55;100936.19;4974770;28;1182;-63
2021/08/03 11:39:24;;;;;;;;;;;;;;;25.79;59.99;100931.31;4975797;28;1774;-62
2021/08/03 11:41:51;;;;;;;;;;;;;;;25.79;58.89;100932.16;4959902;28;1408;-62
2021/08/03 11:44:18;;;;;;;;;;;;;;;25.79;59.59;100924.16;4989294;28;1056;-64
2021/08/03 11:46:56;;;;;;;;;;;;;;;25.78;59.29;100927.78;4985153;28;1262;-65
2021/08/03 11:49:26;;;;;;;;;;;;;;;25.78;59.16;100925.13;4971458;28;1308;-64
2021/08/03 11:52:03;;;;;;;;;;;;;;;25.77;58.88;100917.25;4965559;28;1898;-63
2021/08/03 11:54:30;;;;;;;;;;;;;;;25.78;59.33;100914.44;4969050;28;1387;-63
2021/08/03 11:56:57;;;;;;;;;;;;;;;25.79;59.20;100909.97;4978469;28;987;-66
2021/08/03 11:59:30;;;;;;;;;;;;;;;25.84;59.32;100913.09;4988284;28;1271;-65
2021/08/03 12:01:58;;;;;;;;;;;;;;;25.84;59.42;100913.94;4988477;28;1202;-64
2021/08/03 12:04:26;;;;;;;;;;;;;;;25.84;59.66;100913.09;4988790;28;1277;-63
2021/08/03 12:06:53;;;;;;;;;;;;;;;25.87;58.57;100912.84;4988716;28;1088;-65
2021/08/03 12:09:41;;;;;;;;;;;;;;;25.91;59.75;100906.25;4988680;28;1523;-65
2021/08/03 12:12:14;;;;;;;;;;;;;;;25.92;58.99;100902.63;4962041;28;1911;-64
2021/08/03 12:14:41;;;;;;;;;;;;;;;25.94;59.40;100906.84;4935445;28;1348;-66
2021/08/03 12:17:24;;;;;;;;;;;;;;;25.92;58.84;100905.28;4961788;28;1182;-69
2021/08/03 12:19:51;;;;;;;;;;;;;;;25.91;58.53;100898.25;4987189;28;1406;-67
2021/08/03 12:22:28;;;;;;;;;;;;;;;25.92;58.95;100902.63;4975479;28;980;-70
2021/08/03 12:24:56;;;;;;;;;;;;;;;25.92;58.67;100891.94;4968549;28;1316;-68
2021/08/03 12:27:22;;;;;;;;;;;;;;;25.91;58.51;100893.75;4963748;28;1019;-69
2021/08/03 12:29:49;;;;;;;;;;;;;;;25.92;58.06;100895.47;4989271;28;1284;-68
2021/08/03 12:32:45;;;;;;;;;;;;;;;25.92;57.79;100891.94;4971862;28;1911;-68
2021/08/03 12:35:13;;;;;;;;;;;;;;;25.92;57.46;100886.63;4976684;28;1248;-68
2021/08/03 12:37:40;;;;;;;;;;;;;;;25.90;57.53;100877.91;4971530;28;990;-68
2021/08/03 12:40:26;;;;;;;;;;;;;;;25.97;58.37;100893.25;4989674;28;1229;-68
2021/08/03 12:42:58;;;;;;;;;;;;;;;26.08;58.10;100868.31;4955793;28;1289;-69
2021/08/03 12:45:25;;;;;;;;;;;;;;;26.09;58.04;100868.16;4972547;28;1305;-75
2021/08/03 12:47:53;;;;;;;;;;;;;;;26.16;58.60;100865.00;4989569;28;978;-73
2021/08/03 12:50:21;;;;;;;;;;;;;;;26.17;57.96;100862.22;4971672;28;1914;-71
2021/08/03 12:52:53;;;;;;;;;;;;;;;26.20;58.16;100859.28;4989281;28;973;-73
2021/08/03 12:55:25;;;;;;;;;;;;;;;26.24;57.49;100851.81;4971381;28;1371;-71
2021/08/03 12:57:54;;;;;;;;;;;;;;;26.21;58.27;100850.28;4988992;28;1001;-72
2021/08/03 13:00:34;;;;;;;;;;;;;;;26.26;57.84;100855.22;4971304;28;1261;-72